Nashville, Tennessee
Current Conditions -  °F | °C
As of 2:53 AM on Monday 20 Oct 2014 (Local Time) from KBNA Reporting Station
Scattered Clouds Scattered Clouds  
Wind Chill: 47°   Ceiling: Unl
Heat Index: 47°   Visibility: 10mi
Dew Point: 45°   Wind: 3mph
Humidity: 93%   Direction: 190°S
Pressure: 30.07"   Gusts: NA
Location:  36.11°N, 86.68°W
Report Text: KBNA 200753Z 19003KT 10SM SCT200 08/07 A3007 RMK AO2 SLP181 T00830072
Loading
Personal Weather Stations






























Interactive Weather Map New forecast layout! Learn more

10-Day Weather Forecast

Advertisements
Track Severe Weather on mobile